Time;durP1;ratioP1;P1;durP2;ratioP2;P2;SDS_P1;SDS_P2;PMS_P1;PMS_P2;Temp;Humidity;BMP_temperature;BMP_pressure;BME280_temperature;BME280_humidity;BME280_pressure;Samples;Min_cycle;Max_cycle;Signal;HPM_P1;HPM_P2
2022/10/30 00:02:18;;;;;;;12.27;7.57;;;14.60;99.90;;;;;;8419079;28;20230;-69
2022/10/30 00:06:19;;;;;;;15.63;8.63;;;14.50;99.90;;;;;;8400985;28;20279;-70
2022/10/30 00:10:20;;;;;;;12.93;8.23;;;14.50;99.90;;;;;;8414188;28;20477;-69
2022/10/30 00:14:20;;;;;;;15.10;8.73;;;14.40;1.00;;;;;;8400789;28;20169;-69
2022/10/30 00:18:21;;;;;;;13.43;8.93;;;14.40;1.00;;;;;;8417264;28;20173;-69
2022/10/30 00:22:22;;;;;;;13.60;8.70;;;14.30;1.00;;;;;;8401569;28;20211;-69
2022/10/30 00:26:24;;;;;;;11.93;7.70;;;14.30;99.90;;;;;;8402173;28;20222;-69
2022/10/30 00:30:25;;;;;;;15.10;7.83;;;14.30;99.90;;;;;;8399555;28;20335;-70
2022/10/30 00:34:25;;;;;;;8.97;6.90;;;14.30;99.90;;;;;;8418492;28;20179;-69
2022/10/30 00:38:26;;;;;;;12.40;8.27;;;14.30;19.00;;;;;;8418970;28;20410;-69
2022/10/30 00:42:31;;;;;;;14.40;7.07;;;14.30;17.70;;;;;;8417974;28;20188;-69
2022/10/30 00:46:39;;;;;;;9.93;7.50;;;14.30;43.70;;;;;;8398968;28;20176;-70
2022/10/30 00:50:40;;;;;;;13.63;7.50;;;14.30;93.50;;;;;;8394745;28;20213;-69
2022/10/30 00:54:41;;;;;;;13.20;7.40;;;14.30;1.00;;;;;;8418322;28;20180;-70
2022/10/30 00:58:50;;;;;;;15.57;8.23;;;14.30;1.00;;;;;;8416852;28;20200;-70
2022/10/30 01:02:52;;;;;;;13.47;8.43;;;14.40;99.90;;;;;;8416589;28;20199;-70
2022/10/30 01:06:53;;;;;;;11.23;7.10;;;14.40;99.90;;;;;;8398656;28;20180;-70
2022/10/30 01:10:56;;;;;;;12.13;7.90;;;14.30;99.90;;;;;;8399425;28;20200;-70
2022/10/30 01:14:59;;;;;;;13.93;8.27;;;14.20;1.00;;;;;;8416097;28;21095;-70
2022/10/30 01:19:26;;;;;;;13.43;7.73;;;14.20;1.00;;;;;;8416369;28;20270;-69
2022/10/30 01:23:46;;;;;;;13.10;7.50;;;14.20;1.00;;;;;;8417353;28;20243;-70
2022/10/30 01:28:07;;;;;;;12.20;7.47;;;14.10;1.00;;;;;;8391005;28;20173;-69
2022/10/30 01:32:11;;;;;;;13.87;7.43;;;14.10;39.80;;;;;;8398914;28;20219;-69
2022/10/30 01:36:32;;;;;;;16.37;7.70;;;14.10;99.90;;;;;;8408543;28;20208;-69
2022/10/30 01:40:32;;;;;;;10.77;7.30;;;14.10;99.90;;;;;;8400394;28;20185;-69
2022/10/30 01:44:33;;;;;;;15.07;7.33;;;14.00;99.90;;;;;;8401100;28;20185;-70
2022/10/30 01:48:52;;;;;;;11.70;7.53;;;14.10;99.90;;;;;;8396879;28;20279;-68
2022/10/30 01:53:11;;;;;;;10.97;7.17;;;14.00;99.90;;;;;;8399885;28;20204;-69
2022/10/30 01:57:37;;;;;;;14.13;8.13;;;14.10;99.90;;;;;;8417026;28;20407;-69
2022/10/30 02:01:38;;;;;;;8.43;6.37;;;14.00;99.90;;;;;;8397080;28;20216;-70
2022/10/30 02:05:47;;;;;;;10.30;7.23;;;14.00;99.90;;;;;;8414627;28;20188;-69
2022/10/30 02:09:50;;;;;;;11.53;7.40;;;13.90;99.90;;;;;;8397068;28;20558;-69
2022/10/30 02:13:53;;;;;;;11.83;7.23;;;13.80;99.90;;;;;;8415318;28;20258;-69
2022/10/30 02:17:55;;;;;;;13.60;6.67;;;13.80;1.00;;;;;;8396454;28;20173;-69
2022/10/30 02:21:56;;;;;;;12.23;6.83;;;13.80;1.00;;;;;;8399456;28;20206;-70
2022/10/30 02:25:56;;;;;;;11.77;6.70;;;13.70;99.90;;;;;;8417036;28;20284;-69
2022/10/30 02:29:59;;;;;;;11.43;7.33;;;13.70;99.90;;;;;;8397547;28;20246;-69
2022/10/30 02:33:59;;;;;;;10.90;7.17;;;13.70;1.00;;;;;;8399384;28;20172;-69
2022/10/30 02:38:01;;;;;;;12.43;7.70;;;13.60;99.90;;;;;;8417840;28;20173;-69
2022/10/30 02:42:02;;;;;;;11.90;7.40;;;13.60;1.00;;;;;;8402283;28;20173;-68
2022/10/30 02:46:02;;;;;;;10.10;7.17;;;13.50;1.00;;;;;;8397868;28;20183;-69
2022/10/30 02:50:03;;;;;;;10.30;6.33;;;13.50;1.00;;;;;;8414976;28;20609;-69
2022/10/30 02:54:04;;;;;;;12.07;6.67;;;13.40;99.90;;;;;;8414738;28;20184;-70
2022/10/30 02:58:05;;;;;;;10.27;6.37;;;13.30;1.00;;;;;;8395963;28;20385;-69
2022/10/30 03:02:06;;;;;;;11.27;7.70;;;13.30;99.90;;;;;;8395276;28;20200;-69
2022/10/30 03:06:09;;;;;;;9.37;6.70;;;13.20;99.90;;;;;;8412633;28;20188;-70
2022/10/30 03:10:10;;;;;;;10.53;6.97;;;13.10;1.00;;;;;;8414270;28;20212;-69
2022/10/30 03:14:11;;;;;;;13.70;7.33;;;13.10;99.90;;;;;;8413201;28;20168;-69
2022/10/30 03:18:11;;;;;;;13.30;6.80;;;13.10;99.90;;;;;;8395825;28;20493;-69
2022/10/30 03:22:12;;;;;;;13.03;7.60;;;13.00;99.90;;;;;;8395246;28;20184;-69
2022/10/30 03:26:13;;;;;;;15.67;8.43;;;13.10;99.90;;;;;;8410948;28;20183;-69
2022/10/30 03:30:14;;;;;;;10.10;7.63;;;13.10;1.00;;;;;;8392077;28;20476;-69
2022/10/30 03:34:14;;;;;;;8.70;6.90;;;13.10;1.00;;;;;;8395362;28;20173;-71
2022/10/30 03:38:15;;;;;;;7.97;6.23;;;13.00;99.90;;;;;;8394788;28;20187;-68
2022/10/30 03:42:16;;;;;;;11.93;5.93;;;12.90;99.90;;;;;;8394255;28;20182;-70
2022/10/30 03:46:17;;;;;;;11.60;6.47;;;12.80;85.10;;;;;;8413723;28;20177;-68
2022/10/30 03:50:17;;;;;;;8.33;6.37;;;12.80;99.90;;;;;;8394099;28;20268;-68
2022/10/30 03:54:18;;;;;;;9.80;5.90;;;12.80;99.90;;;;;;8412974;28;20780;-68
2022/10/30 03:58:19;;;;;;;9.47;5.73;;;12.80;99.90;;;;;;8394889;28;20221;-68
2022/10/30 04:02:20;;;;;;;9.50;6.00;;;12.80;99.90;;;;;;8413109;28;20239;-68
2022/10/30 04:06:20;;;;;;;8.43;6.57;;;12.70;99.90;;;;;;8392490;28;20184;-68
2022/10/30 04:10:21;;;;;;;7.67;6.50;;;12.70;99.90;;;;;;8412766;28;20204;-69
2022/10/30 04:14:22;;;;;;;9.90;5.93;;;12.70;99.90;;;;;;8412614;28;20173;-69
2022/10/30 04:18:24;;;;;;;9.37;6.03;;;12.60;1.00;;;;;;8397344;28;20256;-69
2022/10/30 04:22:25;;;;;;;9.27;6.17;;;12.60;1.00;;;;;;8398535;28;20187;-69
2022/10/30 04:26:27;;;;;;;11.50;7.40;;;12.60;1.00;;;;;;8417533;28;20214;-68
2022/10/30 04:30:30;;;;;;;8.83;6.53;;;12.60;1.00;;;;;;8398838;28;20375;-69
2022/10/30 04:34:30;;;;;;;12.57;8.67;;;12.60;1.00;;;;;;8417389;28;20180;-68
2022/10/30 04:38:31;;;;;;;9.23;7.53;;;12.60;1.00;;;;;;8398934;28;20220;-68
2022/10/30 04:42:32;;;;;;;10.90;8.17;;;12.60;6.50;;;;;;8417421;28;20297;-70
2022/10/30 04:46:33;;;;;;;14.43;8.43;;;12.60;94.40;;;;;;8418609;28;20208;-69
2022/10/30 04:50:34;;;;;;;11.63;8.20;;;12.60;1.00;;;;;;8417465;28;20245;-69
2022/10/30 04:54:35;;;;;;;12.50;7.97;;;12.50;1.00;;;;;;8399428;28;20165;-69
2022/10/30 04:58:36;;;;;;;12.67;7.70;;;12.40;1.00;;;;;;8398158;28;20196;-69
2022/10/30 05:02:36;;;;;;;12.13;8.00;;;12.30;1.00;;;;;;8418571;28;20206;-69
2022/10/30 05:06:37;;;;;;;8.93;6.67;;;12.20;64.90;;;;;;8392348;28;20181;-69
2022/10/30 05:10:39;;;;;;;7.50;6.60;;;12.20;56.60;;;;;;8415172;28;20204;-69
2022/10/30 05:14:40;;;;;;;8.20;7.30;;;12.10;90.10;;;;;;8398704;28;20181;-69
2022/10/30 05:18:41;;;;;;;10.50;7.50;;;12.00;99.90;;;;;;8397893;28;20188;-69
2022/10/30 05:22:42;;;;;;;17.43;9.87;;;11.90;99.90;;;;;;8417024;28;20195;-69
2022/10/30 05:26:43;;;;;;;14.97;8.83;;;12.00;99.90;;;;;;8392003;28;20596;-69
2022/10/30 05:30:43;;;;;;;13.10;8.10;;;12.00;99.90;;;;;;8414024;28;20201;-69
2022/10/30 05:34:44;;;;;;;14.17;8.03;;;12.00;99.90;;;;;;8415356;28;20192;-69
2022/10/30 05:38:45;;;;;;;10.53;8.07;;;11.90;99.90;;;;;;8398619;28;20181;-68
2022/10/30 05:42:47;;;;;;;11.57;8.30;;;11.90;99.90;;;;;;8396511;28;20233;-69
2022/10/30 05:46:48;;;;;;;10.67;7.67;;;11.90;99.90;;;;;;8415783;28;20210;-70
2022/10/30 05:50:49;;;;;;;12.70;9.13;;;12.00;99.90;;;;;;8395373;28;20208;-69
2022/10/30 05:54:49;;;;;;;12.17;7.87;;;12.20;99.90;;;;;;8395825;28;20216;-69
2022/10/30 05:58:50;;;;;;;13.17;8.00;;;12.30;99.90;;;;;;8396571;28;20414;-69
2022/10/30 06:02:51;;;;;;;11.53;8.57;;;12.50;99.90;;;;;;8415271;28;20196;-70
2022/10/30 06:06:52;;;;;;;12.20;8.10;;;12.80;99.90;;;;;;8413706;28;20184;-69
2022/10/30 06:10:53;;;;;;;14.57;7.97;;;12.90;19.10;;;;;;8396010;28;20233;-69
2022/10/30 06:14:54;;;;;;;8.37;6.77;;;13.00;1.00;;;;;;8416445;28;20240;-71
2022/10/30 06:18:55;;;;;;;12.07;7.60;;;13.00;99.90;;;;;;8396414;28;20216;-69
2022/10/30 06:23:04;;;;;;;9.70;7.20;;;13.00;99.90;;;;;;8396618;28;20184;-69
2022/10/30 06:27:05;;;;;;;12.90;7.97;;;13.10;1.00;;;;;;8414057;28;20184;-69
2022/10/30 06:31:06;;;;;;;10.60;6.67;;;13.10;99.90;;;;;;8414074;28;20257;-69
2022/10/30 06:35:07;;;;;;;12.87;8.20;;;13.20;99.90;;;;;;8414839;28;20180;-69
2022/10/30 06:39:08;;;;;;;10.90;6.27;;;13.20;99.90;;;;;;8413166;28;20187;-69
2022/10/30 06:43:09;;;;;;;8.33;6.20;;;13.20;99.90;;;;;;8413805;28;20267;-69
2022/10/30 06:47:09;;;;;;;40.13;28.03;;;13.30;99.90;;;;;;8411959;28;20177;-69
2022/10/30 06:51:14;;;;;;;33.10;23.30;;;13.40;99.90;;;;;;8396374;28;20350;-73
2022/10/30 06:55:15;;;;;;;37.87;23.20;;;13.60;7.10;;;;;;8416246;28;20172;-68
2022/10/30 06:59:16;;;;;;;39.87;26.20;;;13.70;99.90;;;;;;8415566;28;20196;-69
2022/10/30 07:03:17;;;;;;;37.43;25.10;;;13.70;1.00;;;;;;8399199;28;20258;-69
2022/10/30 07:07:18;;;;;;;44.10;28.07;;;13.80;99.90;;;;;;8399033;28;20182;-69
2022/10/30 07:11:19;;;;;;;29.73;17.77;;;13.90;1.00;;;;;;8398727;28;20212;-68
2022/10/30 07:15:19;;;;;;;33.30;20.33;;;14.00;94.50;;;;;;8397932;28;20212;-69
2022/10/30 07:19:21;;;;;;;26.10;17.00;;;14.10;33.70;;;;;;8414274;28;20173;-68
2022/10/30 07:23:22;;;;;;;21.97;13.50;;;14.20;99.90;;;;;;8397738;28;20223;-69
2022/10/30 07:27:23;;;;;;;17.97;11.87;;;14.40;66.30;;;;;;8416015;28;20399;-69
2022/10/30 07:31:23;;;;;;;27.03;13.40;;;14.60;1.00;;;;;;8397268;28;20207;-69
2022/10/30 07:35:24;;;;;;;16.63;9.67;;;14.80;99.90;;;;;;8415251;28;20659;-69
2022/10/30 07:39:25;;;;;;;10.13;5.63;;;14.90;90.60;;;;;;8413041;28;20186;-69
2022/10/30 07:43:26;;;;;;;9.87;5.00;;;15.20;1.00;;;;;;8415188;28;20181;-68
2022/10/30 07:47:27;;;;;;;6.53;4.80;;;15.60;99.90;;;;;;8397717;28;20192;-69
2022/10/30 07:51:28;;;;;;;17.53;10.23;;;15.90;99.90;;;;;;8417411;28;20295;-69
2022/10/30 07:55:28;;;;;;;19.53;11.30;;;16.10;96.40;;;;;;8419822;28;20293;-69
2022/10/30 07:59:29;;;;;;;15.13;9.47;;;16.10;50.60;;;;;;8399335;28;20228;-70
2022/10/30 08:03:30;;;;;;;16.83;8.17;;;16.20;54.80;;;;;;8421945;28;20192;-69
2022/10/30 08:07:32;;;;;;;11.77;6.20;;;16.40;66.40;;;;;;8403918;28;20177;-69
2022/10/30 08:11:33;;;;;;;13.20;5.57;;;16.60;1.00;;;;;;8421118;28;20203;-69
2022/10/30 08:15:33;;;;;;;8.80;5.50;;;16.80;1.00;;;;;;8402965;28;20291;-69
2022/10/30 08:19:34;;;;;;;8.27;5.37;;;17.00;1.00;;;;;;8403424;28;20214;-69
2022/10/30 08:23:35;;;;;;;9.23;4.70;;;17.20;99.90;;;;;;8403235;28;20185;-69
2022/10/30 08:27:36;;;;;;;11.07;5.27;;;17.40;99.90;;;;;;8418984;28;20184;-70
2022/10/30 08:31:37;;;;;;;7.17;4.63;;;17.70;99.90;;;;;;8402213;28;20212;-68
2022/10/30 08:35:37;;;;;;;7.80;4.33;;;18.00;99.90;;;;;;8403232;28;20181;-68
2022/10/30 08:39:38;;;;;;;7.00;4.50;;;18.20;99.90;;;;;;8401916;28;20177;-68
2022/10/30 08:43:39;;;;;;;13.67;4.87;;;18.40;99.90;;;;;;8419505;28;20216;-68
2022/10/30 08:47:40;;;;;;;8.67;5.27;;;18.60;99.90;;;;;;8406261;28;20300;-68
2022/10/30 08:51:41;;;;;;;9.27;5.23;;;18.80;99.90;;;;;;8401645;28;20204;-68
2022/10/30 08:55:42;;;;;;;10.10;5.33;;;18.80;99.90;;;;;;8401948;28;20177;-71
2022/10/30 08:59:43;;;;;;;7.87;4.90;;;18.80;99.90;;;;;;8401153;28;20307;-68
2022/10/30 09:03:44;;;;;;;6.70;4.10;;;19.00;99.90;;;;;;8418841;28;20203;-68
2022/10/30 09:07:46;;;;;;;10.10;4.47;;;19.40;99.90;;;;;;8401029;28;20181;-68
2022/10/30 09:11:47;;;;;;;10.57;4.47;;;19.70;99.90;;;;;;8402545;28;20212;-68
2022/10/30 09:15:48;;;;;;;10.27;4.57;;;20.10;64.90;;;;;;8421152;28;20173;-68
2022/10/30 09:19:49;;;;;;;10.63;4.93;;;20.30;64.60;;;;;;8417038;28;20257;-68
2022/10/30 09:23:50;;;;;;;8.73;4.47;;;20.30;16.00;;;;;;8421043;28;20176;-68
2022/10/30 09:27:51;;;;;;;8.90;4.17;;;20.40;27.60;;;;;;8400751;28;20181;-69
2022/10/30 09:31:52;;;;;;;6.93;4.17;;;20.30;1.00;;;;;;8419575;28;20279;-68
2022/10/30 09:35:52;;;;;;;9.63;3.77;;;20.40;39.30;;;;;;8420221;28;20203;-69
2022/10/30 09:39:53;;;;;;;8.30;4.10;;;20.40;24.40;;;;;;8400209;28;20180;-69
2022/10/30 09:44:07;;;;;;;8.57;4.53;;;20.40;29.40;;;;;;8400744;28;20287;-69
2022/10/30 09:48:23;;;;;;;9.30;4.30;;;20.50;40.60;;;;;;8401019;28;20177;-68
2022/10/30 09:52:37;;;;;;;9.20;4.20;;;20.80;1.00;;;;;;8420203;28;20200;-69
2022/10/30 09:56:40;;;;;;;8.33;3.80;;;21.20;1.00;;;;;;8397728;28;20209;-68
2022/10/30 10:01:03;;;;;;;6.93;3.63;;;21.50;1.00;;;;;;8399952;28;20181;-68
2022/10/30 10:05:25;;;;;;;8.20;3.80;;;21.90;1.00;;;;;;8399512;28;20288;-68
2022/10/30 10:09:28;;;;;;;5.37;3.60;;;22.30;1.00;;;;;;8401584;28;20201;-68
2022/10/30 10:13:41;;;;;;;7.73;4.00;;;22.40;1.00;;;;;;8418640;28;20212;-68
2022/10/30 10:17:44;;;;;;;9.20;3.80;;;22.50;1.00;;;;;;8398651;28;20184;-69
2022/10/30 10:21:58;;;;;;;6.53;3.43;;;22.60;1.00;;;;;;8400376;28;20192;-69
2022/10/30 10:26:09;;;;;;;8.87;3.93;;;22.80;1.00;;;;;;8400285;28;20180;-68
2022/10/30 10:30:15;;;;;;;6.70;3.00;;;23.10;1.00;;;;;;8414015;28;20201;-68
2022/10/30 10:34:31;;;;;;;7.60;3.15;;;23.20;1.00;;;;;;8397132;28;20177;-69
2022/10/30 10:39:15;;;;;;;5.50;2.55;;;23.20;1.00;;;;;;8400566;28;20177;-68
2022/10/30 10:44:00;;;;;;;8.10;3.00;;;23.40;1.00;;;;;;8417909;28;20230;-69
2022/10/30 10:48:35;;;;;;;9.05;3.22;;;23.50;1.00;;;;;;8391306;28;20187;-68
2022/10/30 10:52:50;;;;;;;4.70;3.03;;;23.60;1.00;;;;;;8397778;28;20208;-68
2022/10/30 10:56:51;;;;;;;9.05;3.05;;;23.80;1.00;;;;;;8416541;28;20196;-68
2022/10/30 11:00:54;;;;;;;5.95;2.85;;;23.70;1.00;;;;;;8395210;28;20399;-67
2022/10/30 11:05:25;;;;;;;7.32;3.08;;;23.40;1.00;;;;;;8413192;28;20588;-69
2022/10/30 11:09:27;;;;;;;5.53;2.90;;;23.30;1.00;;;;;;8383311;28;20189;-68
2022/10/30 11:13:38;;;;;;;7.85;3.78;;;23.50;1.00;;;;;;8413695;28;20236;-68
2022/10/30 11:17:51;;;;;;;6.35;3.08;;;23.70;1.00;;;;;;8396522;28;20187;-67
2022/10/30 11:21:54;;;;;;;6.18;3.13;;;23.70;1.00;;;;;;8418360;28;20172;-68
2022/10/30 11:25:55;;;;;;;9.68;3.75;;;23.60;1.00;;;;;;8419288;28;20226;-68
2022/10/30 11:29:59;;;;;;;8.40;3.33;;;23.50;1.00;;;;;;8409127;28;20184;-68
2022/10/30 11:34:38;;;;;;;6.43;3.45;;;23.40;1.00;;;;;;8407963;28;20184;-68
2022/10/30 11:38:39;;;;;;;4.45;3.33;;;23.30;1.00;;;;;;8409296;28;20212;-69
2022/10/30 11:42:58;;;;;;;5.40;3.20;;;23.30;1.00;;;;;;8406488;28;20188;-69
2022/10/30 11:46:59;;;;;;;6.68;3.60;;;23.20;1.00;;;;;;8408952;28;20210;-68
2022/10/30 11:51:01;;;;;;;6.15;3.20;;;23.30;1.00;;;;;;8407078;28;20192;-68
2022/10/30 11:55:14;;;;;;;7.18;3.60;;;23.40;1.00;;;;;;8426146;28;20176;-68
2022/10/30 11:59:20;;;;;;;9.37;4.07;;;23.40;1.00;;;;;;8421129;28;20224;-68
2022/10/30 12:03:28;;;;;;;7.80;3.35;;;23.40;1.00;;;;;;8420250;28;20222;-68
2022/10/30 12:07:31;;;;;;;10.40;3.83;;;23.40;1.00;;;;;;8402246;28;20211;-68
2022/10/30 12:11:34;;;;;;;9.73;3.92;;;23.30;1.00;;;;;;8406917;28;20281;-67
2022/10/30 12:15:36;;;;;;;8.07;3.42;;;23.40;1.00;;;;;;8402536;28;20467;-67
2022/10/30 12:19:54;;;;;;;7.72;3.47;;;23.40;1.00;;;;;;8405436;28;20211;-68
2022/10/30 12:24:00;;;;;;;7.50;3.78;;;23.40;1.00;;;;;;8420975;28;20215;-68
2022/10/30 12:28:24;;;;;;;7.13;3.45;;;23.40;1.00;;;;;;8404373;28;20185;-68
2022/10/30 12:32:33;;;;;;;5.03;3.50;;;23.40;1.00;;;;;;8421624;28;20493;-68
2022/10/30 12:36:42;;;;;;;7.18;3.83;;;23.30;1.00;;;;;;8422095;28;20258;-68
2022/10/30 12:41:01;;;;;;;7.13;3.97;;;23.30;1.00;;;;;;8415606;28;20581;-68
2022/10/30 12:45:28;;;;;;;6.77;3.93;;;23.30;1.00;;;;;;8400839;28;20177;-68
2022/10/30 12:49:45;;;;;;;14.73;4.07;;;23.20;1.00;;;;;;8413948;28;20199;-68
2022/10/30 12:53:57;;;;;;;8.87;3.73;;;23.20;1.00;;;;;;8414041;28;20201;-69
2022/10/30 12:58:16;;;;;;;8.60;3.70;;;23.20;1.00;;;;;;8397685;28;20199;-68
2022/10/30 13:02:29;;;;;;;7.93;3.33;;;23.20;1.00;;;;;;8396575;28;20200;-68
2022/10/30 13:06:35;;;;;;;5.57;3.17;;;23.20;1.00;;;;;;8399595;28;20185;-68
2022/10/30 13:10:48;;;;;;;11.77;3.67;;;23.10;1.00;;;;;;8397310;28;20219;-67
2022/10/30 13:14:53;;;;;;;7.23;3.40;;;23.10;1.00;;;;;;8398997;28;20180;-68
2022/10/30 13:18:59;;;;;;;7.53;3.33;;;23.00;1.00;;;;;;8413849;28;20187;-68
2022/10/30 13:23:10;;;;;;;6.73;3.00;;;23.00;44.50;;;;;;8417524;28;20177;-69
2022/10/30 13:27:16;;;;;;;6.90;3.03;;;23.00;18.70;;;;;;8412228;28;20193;-68
2022/10/30 13:31:54;;;;;;;8.10;3.20;;;23.00;85.80;;;;;;8393274;28;20200;-68
2022/10/30 13:36:51;;;;;;;10.93;3.87;;;23.00;1.00;;;;;;8416075;28;20183;-68
2022/10/30 13:40:59;;;;;;;5.93;3.20;;;22.90;28.80;;;;;;8327096;28;20189;-68
2022/10/30 13:45:21;;;;;;;6.33;3.10;;;22.80;1.00;;;;;;8397250;28;20188;-68
2022/10/30 13:49:41;;;;;;;8.67;3.40;;;22.70;1.00;;;;;;8413212;28;20184;-68
2022/10/30 13:53:45;;;;;;;8.70;3.30;;;22.60;9.20;;;;;;8414242;28;20308;-68
2022/10/30 13:58:00;;;;;;;7.67;3.10;;;22.60;1.00;;;;;;8396940;28;20204;-68
2022/10/30 14:02:13;;;;;;;8.47;3.33;;;22.50;1.00;;;;;;8415272;28;20227;-68
2022/10/30 14:06:28;;;;;;;7.67;4.10;;;22.40;1.00;;;;;;8396373;28;20177;-68
2022/10/30 14:10:52;;;;;;;8.20;3.73;;;22.30;1.00;;;;;;8396009;28;20226;-68
2022/10/30 14:14:53;;;;;;;9.83;4.73;;;22.20;27.20;;;;;;8414609;28;20180;-68
2022/10/30 14:19:05;;;;;;;8.37;4.70;;;22.10;36.20;;;;;;8415491;28;20180;-68
2022/10/30 14:23:12;;;;;;;6.73;4.03;;;22.00;1.00;;;;;;8395024;28;20277;-69
2022/10/30 14:27:20;;;;;;;6.03;3.90;;;21.80;1.00;;;;;;8394043;28;20176;-71
2022/10/30 14:31:35;;;;;;;11.17;4.80;;;21.70;1.00;;;;;;8389716;28;20192;-67
2022/10/30 14:35:38;;;;;;;8.20;4.30;;;21.50;1.00;;;;;;8397533;28;20184;-68
2022/10/30 14:39:47;;;;;;;6.33;4.37;;;21.20;68.20;;;;;;8397833;28;20184;-67
2022/10/30 14:44:10;;;;;;;6.03;3.70;;;21.00;98.40;;;;;;8396352;28;20190;-68
2022/10/30 14:48:18;;;;;;;7.43;4.00;;;20.80;99.90;;;;;;8397089;28;20280;-68
2022/10/30 14:52:28;;;;;;;7.50;4.90;;;20.60;99.90;;;;;;8413754;28;20256;-68
2022/10/30 14:56:48;;;;;;;6.77;3.83;;;20.30;99.90;;;;;;8414564;28;20173;-68
2022/10/30 15:00:52;;;;;;;7.23;4.03;;;20.00;99.90;;;;;;8395922;28;20358;-69
2022/10/30 15:05:12;;;;;;;6.73;4.83;;;19.80;99.90;;;;;;8416592;28;20196;-68
2022/10/30 15:09:19;;;;;;;6.27;4.63;;;19.60;99.90;;;;;;8396667;28;20239;-69
2022/10/30 15:13:21;;;;;;;7.57;4.93;;;19.30;99.90;;;;;;8413363;28;20260;-68
2022/10/30 15:17:38;;;;;;;6.80;4.10;;;19.10;99.90;;;;;;8395622;28;20177;-68
2022/10/30 15:21:44;;;;;;;8.50;5.27;;;18.90;99.90;;;;;;8413663;28;20177;-68
2022/10/30 15:25:48;;;;;;;10.40;7.70;;;18.60;99.90;;;;;;8413422;28;20217;-68
2022/10/30 15:30:00;;;;;;;8.03;5.70;;;18.40;99.90;;;;;;8396040;28;20183;-68
2022/10/30 15:34:01;;;;;;;6.10;4.97;;;18.10;99.90;;;;;;8411530;28;20208;-69
2022/10/30 15:38:07;;;;;;;9.00;4.80;;;17.80;99.90;;;;;;8413772;28;20183;-69
2022/10/30 15:42:09;;;;;;;5.40;4.23;;;17.60;1.00;;;;;;8394459;28;20628;-68
2022/10/30 15:46:13;;;;;;;8.80;4.27;;;17.30;1.00;;;;;;8397158;28;20180;-69
2022/10/30 15:50:15;;;;;;;5.90;3.97;;;17.10;1.00;;;;;;8414867;28;20180;-68
2022/10/30 15:54:20;;;;;;;6.73;3.80;;;16.90;1.00;;;;;;8396485;28;20185;-68
2022/10/30 15:58:21;;;;;;;4.77;3.87;;;16.70;1.00;;;;;;8397024;28;20247;-68
2022/10/30 16:02:25;;;;;;;5.57;3.90;;;16.50;91.40;;;;;;8396087;28;20208;-69
2022/10/30 16:06:29;;;;;;;6.10;4.60;;;16.30;99.90;;;;;;8409777;28;20187;-69
2022/10/30 16:10:34;;;;;;;9.67;6.07;;;16.10;99.90;;;;;;8394827;28;20273;-69
2022/10/30 16:14:36;;;;;;;10.83;5.87;;;15.90;99.90;;;;;;8417531;28;20181;-70
2022/10/30 16:18:37;;;;;;;10.80;6.00;;;15.70;1.00;;;;;;8400011;28;20262;-70
2022/10/30 16:22:38;;;;;;;9.53;5.30;;;15.60;1.00;;;;;;8418474;28;20192;-69
2022/10/30 16:26:39;;;;;;;8.70;5.00;;;15.40;94.60;;;;;;8417853;28;20187;-69
2022/10/30 16:30:40;;;;;;;10.30;5.37;;;15.20;99.90;;;;;;8419145;28;20200;-69
2022/10/30 16:34:42;;;;;;;8.17;5.37;;;15.10;99.90;;;;;;8418163;28;20185;-69
2022/10/30 16:38:47;;;;;;;9.90;5.53;;;15.10;99.90;;;;;;8418829;28;20184;-68
2022/10/30 16:43:01;;;;;;;13.07;5.87;;;15.30;74.80;;;;;;8400255;28;20498;-67
2022/10/30 16:47:21;;;;;;;10.93;5.47;;;15.60;1.00;;;;;;8415503;28;20181;-71
2022/10/30 16:51:22;;;;;;;9.70;5.53;;;15.70;99.90;;;;;;8401065;28;20246;-68
2022/10/30 16:55:23;;;;;;;7.67;4.97;;;15.70;99.90;;;;;;8415998;28;20176;-69
2022/10/30 16:59:31;;;;;;;7.40;5.00;;;15.70;99.90;;;;;;8396890;28;20286;-69
2022/10/30 17:03:37;;;;;;;8.50;4.90;;;15.50;99.90;;;;;;8398877;28;20203;-69
2022/10/30 17:07:38;;;;;;;11.83;6.27;;;15.40;99.90;;;;;;8416663;28;20194;-69
2022/10/30 17:11:43;;;;;;;8.50;5.30;;;15.30;99.90;;;;;;8400844;28;20253;-70
2022/10/30 17:15:45;;;;;;;7.33;4.60;;;15.10;99.90;;;;;;8400422;28;20180;-69
2022/10/30 17:19:48;;;;;;;12.77;6.23;;;15.00;1.00;;;;;;8400609;28;20183;-69
2022/10/30 17:23:58;;;;;;;19.17;9.83;;;14.90;1.00;;;;;;8417263;28;20263;-69
2022/10/30 17:27:59;;;;;;;24.17;11.70;;;14.90;1.00;;;;;;8418283;28;20219;-69
2022/10/30 17:32:13;;;;;;;22.40;13.70;;;14.90;1.00;;;;;;8418170;28;20207;-69
2022/10/30 17:36:14;;;;;;;19.37;12.13;;;14.90;1.00;;;;;;8400641;28;20204;-70
2022/10/30 17:40:16;;;;;;;16.63;11.40;;;14.80;99.90;;;;;;8399965;28;20172;-69
2022/10/30 17:44:21;;;;;;;18.23;11.13;;;14.70;1.00;;;;;;8399379;28;20192;-69
2022/10/30 17:48:27;;;;;;;13.93;9.40;;;14.50;1.00;;;;;;8397585;28;20244;-68
2022/10/30 17:52:29;;;;;;;12.23;8.20;;;14.30;27.50;;;;;;8414773;28;20203;-70
2022/10/30 17:56:32;;;;;;;13.50;9.20;;;14.20;99.90;;;;;;8416561;28;20184;-69
2022/10/30 18:00:33;;;;;;;12.60;8.13;;;14.10;99.90;;;;;;8417141;28;20494;-69
2022/10/30 18:04:34;;;;;;;14.67;7.27;;;14.10;99.90;;;;;;8416199;28;20192;-69
2022/10/30 18:08:35;;;;;;;21.07;12.10;;;14.00;99.90;;;;;;8415505;28;20188;-69
2022/10/30 18:12:36;;;;;;;21.10;12.40;;;13.90;1.00;;;;;;8416124;28;20200;-69
2022/10/30 18:16:37;;;;;;;26.77;13.67;;;13.90;99.90;;;;;;8396696;28;20906;-69
2022/10/30 18:20:38;;;;;;;29.00;17.30;;;13.90;99.90;;;;;;8414593;28;20184;-69
2022/10/30 18:24:40;;;;;;;28.80;15.97;;;13.90;1.00;;;;;;8396930;28;20180;-69
2022/10/30 18:28:41;;;;;;;23.10;12.17;;;13.80;1.00;;;;;;8412437;28;20180;-70
2022/10/30 18:32:44;;;;;;;21.37;12.90;;;13.80;1.00;;;;;;8397710;28;20243;-69
2022/10/30 18:36:46;;;;;;;24.43;13.80;;;13.90;1.00;;;;;;8415674;28;20180;-69
2022/10/30 18:40:49;;;;;;;40.13;22.40;;;13.90;1.00;;;;;;8413848;28;20210;-70
2022/10/30 18:44:50;;;;;;;44.40;26.70;;;13.80;1.00;;;;;;8414295;28;20192;-69
2022/10/30 18:48:51;;;;;;;51.67;34.50;;;13.60;1.00;;;;;;8412784;28;20216;-69
2022/10/30 18:52:52;;;;;;;73.77;45.90;;;13.50;1.00;;;;;;8395016;28;20208;-70
2022/10/30 18:56:53;;;;;;;113.87;70.07;;;13.30;99.90;;;;;;8414855;28;20241;-69
2022/10/30 19:00:54;;;;;;;124.17;77.80;;;13.10;1.00;;;;;;8403817;28;20184;-70
2022/10/30 19:04:56;;;;;;;102.43;69.00;;;12.90;57.20;;;;;;8415240;28;20208;-70
2022/10/30 19:08:57;;;;;;;96.73;62.53;;;12.80;6.40;;;;;;8393836;28;20184;-69
2022/10/30 19:13:12;;;;;;;105.60;66.07;;;12.60;99.90;;;;;;8415105;28;20207;-68
2022/10/30 19:17:13;;;;;;;122.57;76.97;;;12.40;99.90;;;;;;8395332;28;20184;-69
2022/10/30 19:21:19;;;;;;;114.00;65.20;;;12.20;99.90;;;;;;8393583;28;20192;-69
2022/10/30 19:25:24;;;;;;;89.07;48.40;;;12.10;1.00;;;;;;8413770;28;20214;-69
2022/10/30 19:29:26;;;;;;;68.50;38.73;;;11.90;99.90;;;;;;8412494;28;20184;-69
2022/10/30 19:33:30;;;;;;;57.67;35.83;;;11.80;96.00;;;;;;8396079;28;20226;-70
2022/10/30 19:37:31;;;;;;;48.90;31.20;;;11.60;99.90;;;;;;8393729;28;20262;-69
2022/10/30 19:41:32;;;;;;;51.27;31.90;;;11.40;99.90;;;;;;8413680;28;20192;-70
2022/10/30 19:45:34;;;;;;;47.97;29.20;;;11.20;99.90;;;;;;8395796;28;20238;-70
2022/10/30 19:49:35;;;;;;;40.97;24.67;;;11.00;1.00;;;;;;8418700;28;20192;-70
2022/10/30 19:53:36;;;;;;;38.73;25.10;;;10.90;1.00;;;;;;8400923;28;20235;-71
2022/10/30 19:57:37;;;;;;;38.10;22.23;;;10.80;73.20;;;;;;8399084;28;20201;-69
2022/10/30 20:01:40;;;;;;;34.73;21.33;;;10.80;99.90;;;;;;8419374;28;20184;-70
2022/10/30 20:05:46;;;;;;;30.37;20.03;;;10.80;99.90;;;;;;8418983;28;20181;-70
2022/10/30 20:09:47;;;;;;;30.33;19.17;;;10.70;99.90;;;;;;8398113;28;20187;-70
2022/10/30 20:13:48;;;;;;;35.00;20.17;;;10.70;99.90;;;;;;8416588;28;20215;-70
2022/10/30 20:17:49;;;;;;;38.40;22.23;;;10.60;99.90;;;;;;8400233;28;20247;-70
2022/10/30 20:21:50;;;;;;;37.33;23.77;;;10.40;99.90;;;;;;8401078;28;20207;-70
2022/10/30 20:26:00;;;;;;;36.00;23.93;;;10.40;99.90;;;;;;8401668;28;20190;-69
2022/10/30 20:30:02;;;;;;;30.23;19.87;;;10.30;99.90;;;;;;8418789;28;20285;-70
2022/10/30 20:34:03;;;;;;;23.27;16.87;;;10.20;99.90;;;;;;8397774;28;20211;-69
2022/10/30 20:38:04;;;;;;;20.67;15.13;;;10.20;99.90;;;;;;8398112;28;20190;-69
2022/10/30 20:42:05;;;;;;;20.30;13.17;;;10.20;99.90;;;;;;8402338;28;20186;-69
2022/10/30 20:46:08;;;;;;;18.90;14.63;;;10.30;99.90;;;;;;8403222;28;20177;-69
2022/10/30 20:50:10;;;;;;;22.40;16.87;;;10.30;99.90;;;;;;8394691;28;20190;-69
2022/10/30 20:54:11;;;;;;;23.50;16.93;;;10.20;99.90;;;;;;8393862;28;20237;-69
2022/10/30 20:58:12;;;;;;;28.20;19.60;;;10.10;99.90;;;;;;8406202;28;20206;-69
2022/10/30 21:02:12;;;;;;;31.20;21.70;;;10.10;99.90;;;;;;8400659;28;20198;-70
2022/10/30 21:06:14;;;;;;;30.37;20.70;;;9.90;99.90;;;;;;8415920;28;20223;-70
2022/10/30 21:10:15;;;;;;;23.60;17.07;;;9.90;99.90;;;;;;8400504;28;20303;-70